createdAt,value
2022-12-29T00:03:02.619Z,38.1
2022-12-29T00:10:35.041Z,38.1
2022-12-29T00:18:07.377Z,38.1
2022-12-29T00:25:39.727Z,38.0
2022-12-29T00:33:12.060Z,38.1
2022-12-29T00:40:44.366Z,38.1
2022-12-29T00:48:16.815Z,38.0
2022-12-29T00:55:49.160Z,38.1
2022-12-29T01:03:21.549Z,37.9
2022-12-29T01:10:53.909Z,38.0
2022-12-29T01:18:26.261Z,38.5
2022-12-29T01:25:58.544Z,38.0
2022-12-29T01:33:30.826Z,38.0
2022-12-29T01:41:03.116Z,37.9
2022-12-29T01:48:35.432Z,37.9
2022-12-29T01:56:07.743Z,38.0
2022-12-29T02:03:40.159Z,37.9
2022-12-29T02:11:12.532Z,37.9
2022-12-29T02:18:44.834Z,37.9
2022-12-29T02:26:17.171Z,37.9
2022-12-29T02:33:50.835Z,37.9
2022-12-29T02:41:23.139Z,37.9
2022-12-29T02:48:55.465Z,37.9
2022-12-29T02:56:27.768Z,38.0
2022-12-29T03:04:00.041Z,38.0
2022-12-29T03:11:32.366Z,37.9
2022-12-29T03:19:04.665Z,37.9
2022-12-29T03:26:36.981Z,37.9
2022-12-29T03:34:09.292Z,37.9
2022-12-29T03:41:41.611Z,37.9
2022-12-29T03:49:13.902Z,37.9
2022-12-29T03:56:46.236Z,37.9
2022-12-29T04:04:18.604Z,37.9
2022-12-29T04:11:50.953Z,37.9
2022-12-29T04:19:23.283Z,37.8
2022-12-29T04:26:55.617Z,37.9
2022-12-29T04:34:28.084Z,37.8
2022-12-29T04:42:00.362Z,37.8
2022-12-29T04:49:32.709Z,37.8
2022-12-29T04:57:04.993Z,37.8
2022-12-29T05:04:37.315Z,37.8
2022-12-29T05:10:09.647Z,37.7
2022-12-29T05:10:56.939Z,37.7
2022-12-29T05:11:44.264Z,37.7
2022-12-29T05:12:31.631Z,37.8
2022-12-29T05:13:18.944Z,37.7
2022-12-29T05:14:06.227Z,37.7
2022-12-29T05:14:53.563Z,37.7
2022-12-29T05:15:41.444Z,37.7
2022-12-29T05:16:28.790Z,37.6
2022-12-29T05:17:16.443Z,37.6
2022-12-29T05:18:04.757Z,37.5
2022-12-29T05:18:52.170Z,37.4
2022-12-29T05:19:39.491Z,37.4
2022-12-29T05:20:26.811Z,37.3
2022-12-29T05:21:14.119Z,37.3
2022-12-29T05:22:01.926Z,37.3
2022-12-29T05:22:49.281Z,37.3
2022-12-29T05:23:36.589Z,37.4
2022-12-29T05:24:23.890Z,37.5
2022-12-29T05:25:11.191Z,37.4
2022-12-29T05:25:58.507Z,37.4
2022-12-29T05:26:45.789Z,37.3
2022-12-29T05:27:33.098Z,37.2
2022-12-29T05:28:20.825Z,37.1
2022-12-29T05:29:08.409Z,37.0
2022-12-29T05:29:55.757Z,36.9
2022-12-29T05:30:43.050Z,36.8
2022-12-29T05:31:30.401Z,36.8
2022-12-29T05:32:17.732Z,36.8
2022-12-29T05:33:06.226Z,36.8
2022-12-29T05:33:53.640Z,36.8
2022-12-29T05:34:40.921Z,36.9
2022-12-29T05:35:28.240Z,36.8
2022-12-29T05:36:15.518Z,36.8
2022-12-29T05:37:02.836Z,36.8
2022-12-29T05:37:50.138Z,36.8
2022-12-29T05:38:37.443Z,36.8
2022-12-29T05:39:24.793Z,36.8
2022-12-29T05:40:12.115Z,36.8
2022-12-29T05:40:59.491Z,36.8
2022-12-29T05:41:46.798Z,36.7
2022-12-29T05:42:34.126Z,36.7
2022-12-29T05:43:21.419Z,36.7
2022-12-29T05:44:08.706Z,36.7
2022-12-29T05:44:56.003Z,36.7
2022-12-29T05:45:43.332Z,36.7
2022-12-29T05:46:30.706Z,36.7
2022-12-29T05:47:18.099Z,36.7
2022-12-29T05:48:05.381Z,36.7
2022-12-29T05:48:52.687Z,36.7
2022-12-29T05:49:39.970Z,36.8
2022-12-29T05:50:27.261Z,36.7
2022-12-29T05:51:14.546Z,36.7
2022-12-29T05:52:01.976Z,36.7
2022-12-29T05:52:49.266Z,36.7
2022-12-29T05:53:36.588Z,36.7
2022-12-29T05:54:23.872Z,36.7
2022-12-29T05:55:11.187Z,36.7
2022-12-29T05:55:58.524Z,36.8
2022-12-29T05:56:45.862Z,37.4
2022-12-29T05:57:33.194Z,36.9
2022-12-29T05:58:20.632Z,36.9
2022-12-29T05:59:07.951Z,37.0
2022-12-29T05:59:55.341Z,37.0
2022-12-29T06:00:42.634Z,36.3
2022-12-29T06:01:30.083Z,36.0
2022-12-29T06:02:17.659Z,35.2
2022-12-29T06:03:05.417Z,35.1
2022-12-29T06:03:52.877Z,35.7
2022-12-29T06:04:40.224Z,35.8
2022-12-29T06:05:27.539Z,35.6
2022-12-29T06:06:14.872Z,34.4
2022-12-29T06:07:02.178Z,34.6
2022-12-29T06:07:49.510Z,34.9
2022-12-29T06:08:36.796Z,35.4
2022-12-29T06:09:24.132Z,35.6
2022-12-29T06:10:11.635Z,35.6
2022-12-29T06:10:58.964Z,35.7
2022-12-29T06:11:46.279Z,35.7
2022-12-29T06:12:33.579Z,35.8
2022-12-29T06:13:20.873Z,35.8
2022-12-29T06:14:08.152Z,36.9
2022-12-29T06:14:55.509Z,37.1
2022-12-29T06:15:42.854Z,37.1
2022-12-29T06:16:30.236Z,36.9
2022-12-29T06:17:17.605Z,37.1
2022-12-29T06:18:04.957Z,37.0
2022-12-29T06:18:52.411Z,36.9
2022-12-29T06:19:39.710Z,37.1
2022-12-29T06:20:26.993Z,37.3
2022-12-29T06:21:14.340Z,37.3
2022-12-29T06:22:01.703Z,37.1
2022-12-29T06:22:49.007Z,37.1
2022-12-29T06:23:36.477Z,37.1
2022-12-29T06:24:23.770Z,37.1
2022-12-29T06:25:11.133Z,37.2
2022-12-29T06:25:58.429Z,37.1
2022-12-29T06:26:45.754Z,37.1
2022-12-29T06:27:33.054Z,37.1
2022-12-29T06:28:20.320Z,37.1
2022-12-29T06:29:07.628Z,37.1
2022-12-29T06:29:54.942Z,37.1
2022-12-29T06:30:42.268Z,37.1
2022-12-29T06:31:29.618Z,37.1
2022-12-29T06:32:16.940Z,37.1
2022-12-29T06:33:04.465Z,37.0
2022-12-29T06:33:51.791Z,37.0
2022-12-29T06:34:39.123Z,37.0
2022-12-29T06:35:26.435Z,36.9
2022-12-29T06:36:13.782Z,37.0
2022-12-29T06:37:01.189Z,37.0
2022-12-29T06:37:48.519Z,37.0
2022-12-29T06:38:35.895Z,37.0
2022-12-29T06:39:23.222Z,37.0
2022-12-29T06:40:10.646Z,36.9
2022-12-29T06:40:57.959Z,36.9
2022-12-29T06:41:45.235Z,36.9
2022-12-29T06:42:32.538Z,37.0
2022-12-29T06:43:20.483Z,36.9
2022-12-29T06:44:07.881Z,36.9
2022-12-29T06:44:55.196Z,36.8
2022-12-29T06:45:42.505Z,36.8
2022-12-29T06:46:29.958Z,37.0
2022-12-29T06:47:17.326Z,36.9
2022-12-29T06:48:04.631Z,37.1
2022-12-29T06:48:52.019Z,37.0
2022-12-29T06:49:39.334Z,36.9
2022-12-29T06:50:26.660Z,37.0
2022-12-29T06:51:13.995Z,37.1
2022-12-29T06:52:01.548Z,37.3
2022-12-29T06:52:48.899Z,37.1
2022-12-29T06:53:36.234Z,37.0
2022-12-29T06:54:23.559Z,37.0
2022-12-29T06:55:10.842Z,37.0
2022-12-29T06:55:58.202Z,37.0
2022-12-29T06:56:45.487Z,37.0
2022-12-29T06:57:32.778Z,37.0
2022-12-29T06:58:20.123Z,37.0
2022-12-29T06:59:07.484Z,37.2
2022-12-29T06:59:54.807Z,37.0
2022-12-29T07:00:42.131Z,37.0
2022-12-29T07:01:29.608Z,37.0
2022-12-29T07:02:17.230Z,37.0
2022-12-29T07:03:04.771Z,37.0
2022-12-29T07:03:52.397Z,37.0
2022-12-29T07:04:39.721Z,37.0
2022-12-29T07:05:27.061Z,37.0
2022-12-29T07:06:14.371Z,37.0
2022-12-29T07:07:01.653Z,37.0
2022-12-29T07:07:48.952Z,36.9
2022-12-29T07:08:36.260Z,37.0
2022-12-29T07:09:23.538Z,36.8
2022-12-29T07:10:10.844Z,36.8
2022-12-29T07:10:58.137Z,36.9
2022-12-29T07:11:45.743Z,36.8
2022-12-29T07:12:33.061Z,36.8
2022-12-29T07:13:20.346Z,37.3
2022-12-29T07:14:07.687Z,37.2
2022-12-29T07:14:54.965Z,36.7
2022-12-29T07:15:42.337Z,36.7
2022-12-29T07:16:29.633Z,36.6
2022-12-29T07:17:16.947Z,36.5
2022-12-29T07:18:04.353Z,36.4
2022-12-29T07:18:52.148Z,36.4
2022-12-29T07:19:39.421Z,36.3
2022-12-29T07:20:27.404Z,36.4
2022-12-29T07:21:14.921Z,36.3
2022-12-29T07:22:02.215Z,36.3
2022-12-29T07:22:49.491Z,36.4
2022-12-29T07:23:36.818Z,36.4
2022-12-29T07:24:24.110Z,36.4
2022-12-29T07:25:11.394Z,36.3
2022-12-29T07:25:58.678Z,36.3
2022-12-29T07:26:45.999Z,36.3
2022-12-29T07:27:33.320Z,36.3
2022-12-29T07:28:20.637Z,36.3
2022-12-29T07:29:07.925Z,36.3
2022-12-29T07:29:55.313Z,36.3
2022-12-29T07:30:42.641Z,36.4
2022-12-29T07:31:30.011Z,36.4
2022-12-29T07:32:17.439Z,36.4
2022-12-29T07:33:04.789Z,36.5
2022-12-29T07:33:52.124Z,36.6
2022-12-29T07:34:39.410Z,36.4
2022-12-29T07:35:26.745Z,36.4
2022-12-29T07:36:14.096Z,36.2
2022-12-29T07:37:01.456Z,36.2
2022-12-29T07:37:48.801Z,36.3
2022-12-29T07:38:36.118Z,36.1
2022-12-29T07:39:23.450Z,36.2
2022-12-29T07:40:10.743Z,36.2
2022-12-29T07:40:58.065Z,36.2
2022-12-29T07:41:45.411Z,36.1
2022-12-29T07:42:32.776Z,35.9
2022-12-29T07:43:20.054Z,35.9
2022-12-29T07:44:07.350Z,36.0
2022-12-29T07:44:54.733Z,35.9
2022-12-29T07:45:42.066Z,35.9
2022-12-29T07:46:55.541Z,35.9
2022-12-29T07:47:26.718Z,35.9
2022-12-29T07:48:14.082Z,35.9
2022-12-29T07:49:01.373Z,35.8
2022-12-29T07:49:48.737Z,35.9
2022-12-29T07:50:36.114Z,35.8
2022-12-29T07:51:23.453Z,35.8
2022-12-29T07:52:11.341Z,35.8
2022-12-29T07:52:58.751Z,35.9
2022-12-29T07:53:46.042Z,35.8
2022-12-29T07:54:33.326Z,35.7
2022-12-29T07:55:20.729Z,35.7
2022-12-29T07:56:08.064Z,35.6
2022-12-29T07:56:55.496Z,35.6
2022-12-29T07:57:42.793Z,35.6
2022-12-29T07:58:30.081Z,35.6
2022-12-29T07:59:17.364Z,35.6
2022-12-29T08:00:04.821Z,35.6
2022-12-29T08:00:52.165Z,35.7
2022-12-29T08:01:39.579Z,35.7
2022-12-29T08:02:27.144Z,35.8
2022-12-29T08:03:15.024Z,35.8
2022-12-29T08:04:02.519Z,35.7
2022-12-29T08:04:49.883Z,35.7
2022-12-29T08:05:37.272Z,35.6
2022-12-29T08:06:24.647Z,35.8
2022-12-29T08:07:11.984Z,35.7
2022-12-29T08:07:59.358Z,35.8
2022-12-29T08:08:46.708Z,36.3
2022-12-29T08:09:34.046Z,35.8
2022-12-29T08:10:21.474Z,35.7
2022-12-29T08:11:08.799Z,35.6
2022-12-29T08:11:56.081Z,35.6
2022-12-29T08:12:43.543Z,35.5
2022-12-29T08:13:30.867Z,35.5
2022-12-29T08:14:18.151Z,35.5
2022-12-29T08:15:05.615Z,35.5
2022-12-29T08:15:52.919Z,35.6
2022-12-29T08:16:40.278Z,35.5
2022-12-29T08:17:27.690Z,35.6
2022-12-29T08:18:14.988Z,35.5
2022-12-29T08:19:02.334Z,35.5
2022-12-29T08:19:49.693Z,35.5
2022-12-29T08:20:36.973Z,35.5
2022-12-29T08:21:24.296Z,35.6
2022-12-29T08:22:11.722Z,35.7
2022-12-29T08:22:59.068Z,35.6
2022-12-29T08:23:46.447Z,35.6
2022-12-29T08:24:33.808Z,35.6
2022-12-29T08:25:21.189Z,35.7
2022-12-29T08:26:08.524Z,35.8
2022-12-29T08:26:55.931Z,35.8
2022-12-29T08:27:43.236Z,35.8
2022-12-29T08:28:30.547Z,35.8
2022-12-29T08:29:17.908Z,35.7
2022-12-29T08:30:05.311Z,35.8
2022-12-29T08:30:52.682Z,35.7
2022-12-29T08:31:40.110Z,35.8
2022-12-29T08:32:27.523Z,35.7
2022-12-29T08:33:14.837Z,35.7
2022-12-29T08:34:02.231Z,35.7
2022-12-29T08:34:49.520Z,35.7
2022-12-29T08:35:36.836Z,35.7
2022-12-29T08:36:24.207Z,35.6
2022-12-29T08:37:11.486Z,35.6
2022-12-29T08:37:58.800Z,35.6
2022-12-29T08:38:46.160Z,35.5
2022-12-29T08:39:33.483Z,35.6
2022-12-29T08:40:20.894Z,35.6
2022-12-29T08:41:08.239Z,35.6
2022-12-29T08:41:55.531Z,35.5
2022-12-29T08:42:42.833Z,35.5
2022-12-29T08:43:30.308Z,35.5
2022-12-29T08:44:17.610Z,35.5
2022-12-29T08:45:05.031Z,35.5
2022-12-29T08:45:52.344Z,35.5
2022-12-29T08:46:39.719Z,35.4
2022-12-29T08:47:27.041Z,35.4
2022-12-29T08:48:14.465Z,35.4
2022-12-29T08:49:01.798Z,35.3
2022-12-29T08:49:49.116Z,35.2
2022-12-29T08:50:36.516Z,35.2
2022-12-29T08:51:25.155Z,35.1
2022-12-29T08:52:12.730Z,35.1
2022-12-29T08:53:00.137Z,35.2
2022-12-29T08:53:47.477Z,35.2
2022-12-29T08:54:34.785Z,35.2
2022-12-29T08:55:22.229Z,35.2
2022-12-29T08:56:09.559Z,35.2
2022-12-29T08:56:56.899Z,35.2
2022-12-29T08:57:44.313Z,35.2
2022-12-29T08:58:31.615Z,35.2
2022-12-29T08:59:18.910Z,35.2
2022-12-29T09:00:06.369Z,35.3
2022-12-29T09:00:53.698Z,35.3
2022-12-29T09:01:41.321Z,35.2
2022-12-29T09:02:28.946Z,35.0
2022-12-29T09:03:25.898Z,33.8
2022-12-29T09:04:16.149Z,33.5
2022-12-29T09:05:04.207Z,33.4
2022-12-29T09:05:51.613Z,32.5
2022-12-29T09:06:40.655Z,32.5
2022-12-29T09:07:28.007Z,32.4
2022-12-29T09:08:18.565Z,32.7
2022-12-29T09:09:08.217Z,33.1
2022-12-29T09:09:55.610Z,33.2
2022-12-29T09:10:42.925Z,33.3
2022-12-29T09:11:30.204Z,33.6
2022-12-29T09:12:17.627Z,33.7
2022-12-29T09:13:04.923Z,33.9
2022-12-29T09:13:52.239Z,33.9
2022-12-29T09:14:39.682Z,34.0
2022-12-29T09:15:26.989Z,34.1
2022-12-29T09:16:14.356Z,34.1
2022-12-29T09:17:01.721Z,34.2
2022-12-29T09:17:49.044Z,34.3
2022-12-29T09:18:36.394Z,34.3
2022-12-29T09:19:23.811Z,34.4
2022-12-29T09:20:11.159Z,34.5
2022-12-29T09:20:58.437Z,34.5
2022-12-29T09:21:45.857Z,34.6
2022-12-29T09:22:33.179Z,34.7
2022-12-29T09:23:20.507Z,34.7
2022-12-29T09:24:07.905Z,34.5
2022-12-29T09:24:55.188Z,34.6
2022-12-29T09:25:42.458Z,34.6
2022-12-29T09:26:29.931Z,34.6
2022-12-29T09:27:17.246Z,34.6
2022-12-29T09:28:04.610Z,34.6
2022-12-29T09:28:52.004Z,34.6
2022-12-29T09:29:39.364Z,34.6
2022-12-29T09:30:26.677Z,34.5
2022-12-29T09:31:14.161Z,34.6
2022-12-29T09:32:01.498Z,34.6
2022-12-29T09:32:54.873Z,34.7
2022-12-29T09:33:42.503Z,34.8
2022-12-29T09:34:29.947Z,34.8
2022-12-29T09:35:17.288Z,34.7
2022-12-29T09:36:04.646Z,34.7
2022-12-29T09:36:51.971Z,34.6
2022-12-29T09:37:39.413Z,34.7
2022-12-29T09:38:26.701Z,34.7
2022-12-29T09:39:14.126Z,34.8
2022-12-29T09:40:01.424Z,34.8
2022-12-29T09:40:48.801Z,34.7
2022-12-29T09:41:36.190Z,34.6
2022-12-29T09:42:23.488Z,34.6
2022-12-29T09:43:11.231Z,34.8
2022-12-29T09:43:58.594Z,34.9
2022-12-29T09:44:45.911Z,35.0
2022-12-29T09:45:33.198Z,35.0
2022-12-29T09:46:20.993Z,35.0
2022-12-29T09:47:08.512Z,35.1
2022-12-29T09:47:55.932Z,35.0
2022-12-29T09:48:43.271Z,35.0
2022-12-29T09:49:30.571Z,35.1
2022-12-29T09:50:17.854Z,35.0
2022-12-29T09:51:05.171Z,35.1
2022-12-29T09:51:52.506Z,35.2
2022-12-29T09:52:39.821Z,35.3
2022-12-29T09:53:27.146Z,35.5
2022-12-29T09:54:14.509Z,36.0
2022-12-29T09:55:05.281Z,36.5
2022-12-29T09:55:56.394Z,37.1
2022-12-29T09:56:43.779Z,37.4
2022-12-29T09:57:31.136Z,37.2
2022-12-29T09:58:18.432Z,36.9
2022-12-29T09:59:05.919Z,36.9
2022-12-29T09:59:53.259Z,36.7
2022-12-29T10:00:40.586Z,37.0
2022-12-29T10:01:28.118Z,36.2
2022-12-29T10:02:15.593Z,36.0
2022-12-29T10:03:03.137Z,36.0
2022-12-29T10:03:50.544Z,35.9
2022-12-29T10:04:37.887Z,35.8
2022-12-29T10:05:25.310Z,36.4
2022-12-29T10:06:12.639Z,35.8
2022-12-29T10:07:57.366Z,35.8
2022-12-29T10:08:44.813Z,35.7
2022-12-29T10:09:32.136Z,35.8
2022-12-29T10:10:19.538Z,35.6
2022-12-29T10:11:06.904Z,35.6
2022-12-29T10:11:54.199Z,35.6
2022-12-29T10:12:41.544Z,35.6
2022-12-29T10:13:28.939Z,35.5
2022-12-29T10:14:16.958Z,35.5
2022-12-29T10:15:04.381Z,35.5
2022-12-29T10:15:51.771Z,35.5
2022-12-29T10:16:39.150Z,36.0
2022-12-29T10:17:27.034Z,35.3
2022-12-29T10:18:14.326Z,35.3
2022-12-29T10:19:01.731Z,35.2
2022-12-29T10:19:49.022Z,35.2
2022-12-29T10:20:36.335Z,35.2
2022-12-29T10:21:23.703Z,35.1
2022-12-29T10:22:11.032Z,35.2
2022-12-29T10:22:58.364Z,35.2
2022-12-29T10:23:45.776Z,35.2
2022-12-29T10:24:33.068Z,35.2
2022-12-29T10:25:20.359Z,35.2
2022-12-29T10:26:07.791Z,35.3
2022-12-29T10:26:55.116Z,35.3
2022-12-29T10:27:42.451Z,35.3
2022-12-29T10:28:29.865Z,35.2
2022-12-29T10:29:17.166Z,35.2
2022-12-29T10:30:04.458Z,35.3
2022-12-29T10:30:51.871Z,35.4
2022-12-29T10:31:39.212Z,35.4
2022-12-29T10:32:26.513Z,35.4
2022-12-29T10:33:13.953Z,35.4
2022-12-29T10:34:01.259Z,35.4
2022-12-29T10:34:48.535Z,35.5
2022-12-29T10:35:36.025Z,35.4
2022-12-29T10:36:23.315Z,35.4
2022-12-29T10:37:10.605Z,35.4
2022-12-29T10:37:58.026Z,35.3
2022-12-29T10:38:45.372Z,35.4
2022-12-29T10:39:32.736Z,35.4
2022-12-29T10:40:20.086Z,35.4
2022-12-29T10:41:07.417Z,35.5
2022-12-29T10:41:54.781Z,35.4
2022-12-29T10:42:42.157Z,35.4
2022-12-29T10:43:29.477Z,35.4
2022-12-29T10:44:16.774Z,35.4
2022-12-29T10:45:04.195Z,35.4
2022-12-29T10:45:51.535Z,35.3
2022-12-29T10:46:38.911Z,35.4
2022-12-29T10:47:26.324Z,35.4
2022-12-29T10:48:13.623Z,35.4
2022-12-29T10:49:00.913Z,35.3
2022-12-29T10:49:48.303Z,35.3
2022-12-29T10:50:35.666Z,35.3
2022-12-29T10:51:22.960Z,35.3
2022-12-29T10:52:10.386Z,35.2
2022-12-29T10:52:57.728Z,35.2
2022-12-29T10:53:45.057Z,35.2
2022-12-29T10:54:32.407Z,35.2
2022-12-29T10:55:20.423Z,35.1
2022-12-29T10:56:07.833Z,35.1
2022-12-29T10:56:55.176Z,35.1
2022-12-29T10:57:42.525Z,35.2
2022-12-29T10:58:29.805Z,35.2
2022-12-29T10:59:17.129Z,35.2
2022-12-29T11:00:04.578Z,35.2
2022-12-29T11:00:52.027Z,35.2
2022-12-29T11:01:39.529Z,35.3
2022-12-29T11:02:27.155Z,35.4
2022-12-29T11:03:14.921Z,35.3
2022-12-29T11:04:02.315Z,35.2
2022-12-29T11:04:49.622Z,35.3
2022-12-29T11:05:37.082Z,35.2
2022-12-29T11:06:24.400Z,35.1
2022-12-29T11:07:15.870Z,35.1
2022-12-29T11:08:03.575Z,35.0
2022-12-29T11:08:50.928Z,35.0
2022-12-29T11:09:42.434Z,34.9
2022-12-29T11:10:30.541Z,34.9
2022-12-29T11:11:17.941Z,35.0
2022-12-29T11:12:05.281Z,35.0
2022-12-29T11:12:52.599Z,35.0
2022-12-29T11:13:39.996Z,35.0
2022-12-29T11:14:27.319Z,35.0
2022-12-29T11:15:14.607Z,35.1
2022-12-29T11:16:02.115Z,35.1
2022-12-29T11:16:49.587Z,35.1
2022-12-29T11:17:36.887Z,35.0
2022-12-29T11:18:24.289Z,35.1
2022-12-29T11:19:11.578Z,35.0
2022-12-29T11:19:58.901Z,35.0
2022-12-29T11:20:46.334Z,34.9
2022-12-29T11:21:33.637Z,34.9
2022-12-29T11:22:20.955Z,34.9
2022-12-29T11:23:08.358Z,35.0
2022-12-29T11:23:55.654Z,35.0
2022-12-29T11:24:42.973Z,35.0
2022-12-29T11:25:30.440Z,35.0
2022-12-29T11:26:17.776Z,34.9
2022-12-29T11:33:50.077Z,34.9
2022-12-29T11:41:22.379Z,35.1
2022-12-29T11:46:24.701Z,35.1
2022-12-29T11:47:12.034Z,35.2
2022-12-29T11:47:59.371Z,35.2
2022-12-29T11:48:46.849Z,35.2
2022-12-29T11:49:34.252Z,35.3
2022-12-29T11:50:21.596Z,35.2
2022-12-29T11:51:08.907Z,35.2
2022-12-29T11:51:56.358Z,35.2
2022-12-29T11:52:44.043Z,35.2
2022-12-29T11:53:31.511Z,35.2
2022-12-29T11:54:18.797Z,35.2
2022-12-29T11:55:06.115Z,35.2
2022-12-29T11:55:53.401Z,35.2
2022-12-29T11:56:41.587Z,35.1
2022-12-29T11:57:28.987Z,35.2
2022-12-29T11:58:16.273Z,35.2
2022-12-29T11:59:03.543Z,35.2
2022-12-29T11:59:50.844Z,35.2
2022-12-29T12:00:38.123Z,35.2
2022-12-29T12:01:25.501Z,35.2
2022-12-29T12:02:12.972Z,35.1
2022-12-29T12:03:00.431Z,34.3
2022-12-29T12:03:47.850Z,34.1
2022-12-29T12:04:35.236Z,34.1
2022-12-29T12:05:22.600Z,34.4
2022-12-29T12:06:09.911Z,34.4
2022-12-29T12:06:57.233Z,34.6
2022-12-29T12:07:44.577Z,34.7
2022-12-29T12:08:31.937Z,34.8
2022-12-29T12:09:19.221Z,34.8
2022-12-29T12:10:08.087Z,35.4
2022-12-29T12:10:55.543Z,34.9
2022-12-29T12:11:43.216Z,35.0
2022-12-29T12:12:30.562Z,35.0
2022-12-29T12:13:17.862Z,35.0
2022-12-29T12:14:05.365Z,35.0
2022-12-29T12:14:52.719Z,35.1
2022-12-29T12:15:45.385Z,35.1
2022-12-29T12:16:34.194Z,35.0
2022-12-29T12:17:21.519Z,35.0
2022-12-29T12:18:08.846Z,35.0
2022-12-29T12:18:56.177Z,35.1
2022-12-29T12:19:43.600Z,35.0
2022-12-29T12:20:30.884Z,35.1
2022-12-29T12:21:18.181Z,35.1
2022-12-29T12:22:05.764Z,35.1
2022-12-29T12:22:53.107Z,35.1
2022-12-29T12:23:40.443Z,35.0
2022-12-29T12:24:27.841Z,35.1
2022-12-29T12:25:15.165Z,35.0
2022-12-29T12:26:02.512Z,35.0
2022-12-29T12:26:49.892Z,35.0
2022-12-29T12:27:37.240Z,35.0
2022-12-29T12:28:24.577Z,35.0
2022-12-29T12:29:12.003Z,35.1
2022-12-29T12:29:59.384Z,35.0
2022-12-29T12:30:46.775Z,35.0
2022-12-29T12:31:34.175Z,35.2
2022-12-29T12:32:21.773Z,35.2
2022-12-29T12:33:09.059Z,35.2
2022-12-29T12:33:56.524Z,35.2
2022-12-29T12:34:43.854Z,35.2
2022-12-29T12:35:31.210Z,35.2
2022-12-29T12:36:18.599Z,35.1
2022-12-29T12:37:05.921Z,35.1
2022-12-29T12:37:53.244Z,35.1
2022-12-29T12:38:40.723Z,35.1
2022-12-29T12:39:28.013Z,35.1
2022-12-29T12:40:15.340Z,35.3
2022-12-29T12:41:02.779Z,35.3
2022-12-29T12:41:50.102Z,35.3
2022-12-29T12:42:37.468Z,35.4
2022-12-29T12:43:24.877Z,35.2
2022-12-29T12:44:12.204Z,35.3
2022-12-29T12:44:59.540Z,35.3
2022-12-29T12:45:46.957Z,35.3
2022-12-29T12:46:34.431Z,35.3
2022-12-29T12:47:21.761Z,35.2
2022-12-29T12:48:09.217Z,35.3
2022-12-29T12:48:56.511Z,35.4
2022-12-29T12:49:43.880Z,35.8
2022-12-29T12:50:31.225Z,35.3
2022-12-29T12:51:18.555Z,35.3
2022-12-29T12:52:05.983Z,35.2
2022-12-29T12:52:53.289Z,35.3
2022-12-29T12:53:40.580Z,35.3
2022-12-29T12:54:27.871Z,35.3
2022-12-29T12:55:15.302Z,35.3
2022-12-29T12:56:02.624Z,35.4
2022-12-29T12:56:49.973Z,35.3
2022-12-29T12:57:37.380Z,35.3
2022-12-29T12:58:24.728Z,35.3
2022-12-29T12:59:12.060Z,35.4
2022-12-29T12:59:59.444Z,35.4
2022-12-29T13:00:46.761Z,35.8
2022-12-29T13:01:34.243Z,35.3
2022-12-29T13:02:21.788Z,35.2
2022-12-29T13:03:09.715Z,35.2
2022-12-29T13:03:57.227Z,35.3
2022-12-29T13:04:44.629Z,35.3
2022-12-29T13:05:31.980Z,35.3
2022-12-29T13:06:19.618Z,35.3
2022-12-29T13:07:07.341Z,35.5
2022-12-29T13:07:54.669Z,35.4
2022-12-29T13:08:42.071Z,35.4
2022-12-29T13:09:29.390Z,35.3
2022-12-29T13:10:16.704Z,35.3
2022-12-29T13:11:03.965Z,35.4
2022-12-29T13:11:51.255Z,35.6
2022-12-29T13:12:38.558Z,35.5
2022-12-29T13:13:25.921Z,35.4
2022-12-29T13:14:13.241Z,35.5
2022-12-29T13:15:00.559Z,35.6
2022-12-29T13:15:47.910Z,35.7
2022-12-29T13:16:35.324Z,35.8
2022-12-29T13:17:22.715Z,35.8
2022-12-29T13:18:10.007Z,35.8
2022-12-29T13:18:57.288Z,35.8
2022-12-29T13:19:44.653Z,35.8
2022-12-29T13:20:31.964Z,35.8
2022-12-29T13:21:19.296Z,35.8
2022-12-29T13:22:07.240Z,35.9
2022-12-29T13:22:54.634Z,35.8
2022-12-29T13:23:42.153Z,35.7
2022-12-29T13:24:29.574Z,35.8
2022-12-29T13:25:16.858Z,35.8
2022-12-29T13:26:04.306Z,35.8
2022-12-29T13:26:51.619Z,35.9
2022-12-29T13:27:38.967Z,35.9
2022-12-29T13:28:26.256Z,35.8
2022-12-29T13:29:13.585Z,35.8
2022-12-29T13:30:00.874Z,35.8
2022-12-29T13:30:48.196Z,35.8
2022-12-29T13:31:35.674Z,35.8
2022-12-29T13:32:23.059Z,36.0
2022-12-29T13:33:10.344Z,35.8
2022-12-29T13:33:57.690Z,35.9
2022-12-29T13:34:45.040Z,36.0
2022-12-29T13:35:32.347Z,36.2
2022-12-29T13:36:19.648Z,36.2
2022-12-29T13:37:06.988Z,36.2
2022-12-29T13:37:54.316Z,36.3
2022-12-29T13:38:41.633Z,36.2
2022-12-29T13:39:28.964Z,36.2
2022-12-29T13:40:16.239Z,36.1
2022-12-29T13:41:03.553Z,36.5
2022-12-29T13:41:50.862Z,36.2
2022-12-29T13:42:38.229Z,36.4
2022-12-29T13:43:25.551Z,36.4
2022-12-29T13:44:12.842Z,36.5
2022-12-29T13:45:00.162Z,36.5
2022-12-29T13:45:47.450Z,36.4
2022-12-29T13:46:34.816Z,36.4
2022-12-29T13:47:22.126Z,36.6
2022-12-29T13:48:09.478Z,36.5
2022-12-29T13:48:56.808Z,36.4
2022-12-29T13:49:44.155Z,36.5
2022-12-29T13:50:31.453Z,36.5
2022-12-29T13:51:22.677Z,36.4
2022-12-29T13:52:14.696Z,36.4
2022-12-29T13:53:02.148Z,36.4
2022-12-29T13:53:49.478Z,36.5
2022-12-29T13:54:36.819Z,36.3
2022-12-29T13:55:24.206Z,36.2
2022-12-29T13:56:11.550Z,36.8
2022-12-29T13:56:58.829Z,36.2
2022-12-29T13:57:46.381Z,36.2
2022-12-29T13:58:33.679Z,36.8
2022-12-29T13:59:20.985Z,36.4
2022-12-29T14:00:08.457Z,36.4
2022-12-29T14:00:55.829Z,36.6
2022-12-29T14:01:43.300Z,36.6
2022-12-29T14:02:30.891Z,36.7
2022-12-29T14:03:18.458Z,36.6
2022-12-29T14:04:06.018Z,36.6
2022-12-29T14:04:53.372Z,36.6
2022-12-29T14:05:40.697Z,36.5
2022-12-29T14:06:28.026Z,36.5
2022-12-29T14:07:15.343Z,36.4
2022-12-29T14:08:02.687Z,36.3
2022-12-29T14:08:50.059Z,36.3
2022-12-29T14:09:37.363Z,36.4
2022-12-29T14:10:24.655Z,36.5
2022-12-29T14:11:11.983Z,36.4
2022-12-29T14:11:59.282Z,36.5
2022-12-29T14:12:46.578Z,36.4
2022-12-29T14:13:33.862Z,36.4
2022-12-29T14:14:21.235Z,36.3
2022-12-29T14:15:08.568Z,36.2
2022-12-29T14:15:55.948Z,36.3
2022-12-29T14:16:43.403Z,36.3
2022-12-29T14:17:30.803Z,36.3
2022-12-29T14:18:18.115Z,36.3
2022-12-29T14:19:05.478Z,36.3
2022-12-29T14:19:52.814Z,36.5
2022-12-29T14:20:40.137Z,36.5
2022-12-29T14:21:27.416Z,36.4
2022-12-29T14:22:14.755Z,36.5
2022-12-29T14:23:02.049Z,36.4
2022-12-29T14:23:49.384Z,36.4
2022-12-29T14:24:36.672Z,36.3
2022-12-29T14:25:23.987Z,36.4
2022-12-29T14:26:11.307Z,36.4
2022-12-29T14:26:58.605Z,36.4
2022-12-29T14:27:45.929Z,36.4
2022-12-29T14:28:33.236Z,36.3
2022-12-29T14:29:20.560Z,36.3
2022-12-29T14:30:07.933Z,36.4
2022-12-29T14:30:55.231Z,36.3
2022-12-29T14:31:42.646Z,36.2
2022-12-29T14:32:30.005Z,36.1
2022-12-29T14:33:17.371Z,36.1
2022-12-29T14:34:04.714Z,36.1
2022-12-29T14:34:52.896Z,36.5
2022-12-29T14:35:40.353Z,36.0
2022-12-29T14:36:27.730Z,36.0
2022-12-29T14:37:15.025Z,36.0
2022-12-29T14:38:02.342Z,36.1
2022-12-29T14:38:49.750Z,36.1
2022-12-29T14:39:37.089Z,36.1
2022-12-29T14:40:24.444Z,36.0
2022-12-29T14:41:16.116Z,36.0
2022-12-29T14:42:06.272Z,36.0
2022-12-29T14:42:53.691Z,36.6
2022-12-29T14:43:41.019Z,36.1
2022-12-29T14:44:28.306Z,36.2
2022-12-29T14:45:15.717Z,36.1
2022-12-29T14:46:03.026Z,36.2
2022-12-29T14:46:50.341Z,36.1
2022-12-29T14:47:37.756Z,36.1
2022-12-29T14:48:25.069Z,36.0
2022-12-29T14:49:12.363Z,35.9
2022-12-29T14:49:59.791Z,36.0
2022-12-29T14:50:47.101Z,36.1
2022-12-29T14:51:34.455Z,36.1
2022-12-29T14:52:21.821Z,36.1
2022-12-29T14:53:09.141Z,36.2
2022-12-29T14:53:56.452Z,36.2
2022-12-29T14:54:43.857Z,36.1
2022-12-29T14:55:31.197Z,36.1
2022-12-29T14:56:18.519Z,36.1
2022-12-29T14:57:05.912Z,36.1
2022-12-29T14:57:53.201Z,36.2
2022-12-29T14:58:40.487Z,36.2
2022-12-29T14:59:27.874Z,36.2
2022-12-29T15:00:15.156Z,36.1
2022-12-29T15:01:02.584Z,36.1
2022-12-29T15:01:50.075Z,36.2
2022-12-29T15:02:37.701Z,36.1
2022-12-29T15:03:25.245Z,36.2
2022-12-29T15:04:12.648Z,36.2
2022-12-29T15:04:59.941Z,36.3
2022-12-29T15:05:47.264Z,36.3
2022-12-29T15:06:34.637Z,36.2
2022-12-29T15:07:21.912Z,36.2
2022-12-29T15:08:09.190Z,36.1
2022-12-29T15:08:56.611Z,36.0
2022-12-29T15:09:43.940Z,36.0
2022-12-29T15:10:31.259Z,36.0
2022-12-29T15:11:18.697Z,36.1
2022-12-29T15:12:06.034Z,36.1
2022-12-29T15:12:53.356Z,36.1
2022-12-29T15:13:40.792Z,36.0
2022-12-29T15:14:28.085Z,36.0
2022-12-29T15:15:15.407Z,36.0
2022-12-29T15:16:02.899Z,36.0
2022-12-29T15:16:50.304Z,36.0
2022-12-29T15:17:37.626Z,36.0
2022-12-29T15:18:25.084Z,36.0
2022-12-29T15:19:18.059Z,35.9
2022-12-29T15:20:07.142Z,35.9
2022-12-29T15:20:54.554Z,35.9
2022-12-29T15:21:41.838Z,35.9
2022-12-29T15:22:29.167Z,35.9
2022-12-29T15:23:16.541Z,35.7
2022-12-29T15:24:03.889Z,35.6
2022-12-29T15:24:51.224Z,35.6
2022-12-29T15:25:38.617Z,35.5
2022-12-29T15:26:25.896Z,35.5
2022-12-29T15:27:13.225Z,35.6
2022-12-29T15:28:00.637Z,35.6